Time;durP1;ratioP1;P1;durP2;ratioP2;P2;SDS_P1;SDS_P2;PMS_P1;PMS_P2;Temp;Humidity;BMP_temperature;BMP_pressure;BME280_temperature;BME280_humidity;BME280_pressure;Samples;Min_cycle;Max_cycle;Signal;HPM_P1;HPM_P2
2022/11/16 00:02:06;;;;;;;5.80;3.50;;;10.20;99.90;;;9.57;100.00;96076.25;4963209;28;20057;-74
2022/11/16 00:04:33;;;;;;;5.47;3.95;;;10.20;99.90;;;9.52;100.00;96079.13;4960230;28;20080;-73
2022/11/16 00:07:03;;;;;;;5.65;4.07;;;10.20;99.90;;;9.57;100.00;96069.31;4961034;28;20055;-74
2022/11/16 00:09:31;;;;;;;7.50;4.38;;;10.20;99.90;;;9.52;100.00;96071.34;4980418;28;20117;-73
2022/11/16 00:12:03;;;;;;;5.20;3.65;;;10.20;99.90;;;9.57;100.00;96068.47;4980744;28;20588;-73
2022/11/16 00:14:33;;;;;;;6.18;3.67;;;10.20;99.90;;;9.56;100.00;96069.41;4965285;28;20074;-73
2022/11/16 00:17:02;;;;;;;6.65;4.25;;;10.20;99.90;;;9.55;100.00;96057.38;4965902;28;20054;-73
2022/11/16 00:19:29;;;;;;;5.60;3.35;;;10.20;99.90;;;9.55;100.00;96065.16;4974307;28;20043;-73
2022/11/16 00:21:56;;;;;;;8.23;4.60;;;10.20;99.90;;;9.52;100.00;96062.75;4965229;28;20082;-73
2022/11/16 00:24:23;;;;;;;4.35;3.17;;;10.30;99.90;;;9.52;100.00;96049.81;4975008;28;20097;-71
2022/11/16 00:26:54;;;;;;;4.80;2.95;;;10.30;99.90;;;9.52;100.00;96048.03;4963161;28;20058;-72
2022/11/16 00:29:24;;;;;;;7.57;3.17;;;10.20;99.90;;;9.52;100.00;96055.81;4964423;28;20059;-74
2022/11/16 00:31:52;;;;;;;6.13;3.50;;;10.20;99.90;;;9.55;100.00;96050.44;4964127;28;20054;-73
2022/11/16 00:34:21;;;;;;;4.72;2.90;;;10.30;99.90;;;9.59;100.00;96051.91;4961426;28;20857;-73
2022/11/16 00:36:48;;;;;;;5.55;3.05;;;10.30;99.90;;;9.61;100.00;96044.06;4960521;28;20050;-73
2022/11/16 00:39:16;;;;;;;4.88;2.83;;;10.30;99.90;;;9.56;100.00;96035.75;4964504;28;20068;-74
2022/11/16 00:41:44;;;;;;;3.45;2.40;;;10.30;99.90;;;9.61;100.00;96033.69;4978082;28;20054;-72
2022/11/16 00:44:11;;;;;;;3.03;1.80;;;10.30;99.90;;;9.68;100.00;96028.94;4961589;28;20066;-74
2022/11/16 00:46:38;;;;;;;3.10;2.10;;;10.30;99.90;;;9.67;100.00;96038.50;4979086;28;20051;-73
2022/11/16 00:49:06;;;;;;;4.72;2.28;;;10.30;99.90;;;9.66;100.00;96030.81;4959897;28;20054;-73
2022/11/16 00:51:35;;;;;;;4.45;2.45;;;10.30;99.90;;;9.68;100.00;96023.78;4964801;28;20362;-73
2022/11/16 00:54:04;;;;;;;3.83;2.00;;;10.30;99.90;;;9.67;100.00;96028.13;4972529;28;20063;-73
2022/11/16 00:56:31;;;;;;;3.78;2.08;;;10.30;99.90;;;9.65;100.00;96029.97;4970785;28;20055;-73
2022/11/16 00:58:58;;;;;;;4.05;2.53;;;10.30;99.90;;;9.69;100.00;96040.97;4963542;28;20055;-72
2022/11/16 01:01:25;;;;;;;3.92;2.40;;;10.30;99.90;;;9.64;100.00;96036.91;4962412;28;20054;-73
2022/11/16 01:03:52;;;;;;;3.78;2.03;;;10.40;99.90;;;9.68;100.00;96040.13;4963085;28;20457;-73
2022/11/16 01:06:19;;;;;;;3.05;2.08;;;10.40;99.90;;;9.72;100.00;96045.97;4963764;28;20051;-73
2022/11/16 01:08:47;;;;;;;3.42;1.70;;;10.40;99.90;;;9.72;100.00;96043.38;4963225;28;20091;-73
2022/11/16 01:14:04;;;;;;;3.22;2.15;;;10.40;99.90;;;9.59;100.00;96038.97;4961860;28;20066;-73
2022/11/16 01:16:31;;;;;;;3.08;2.10;;;10.30;99.90;;;9.60;100.00;96048.41;4981280;28;20062;-72
2022/11/16 01:18:59;;;;;;;5.50;2.67;;;10.30;99.90;;;9.61;100.00;96046.63;4957386;28;20051;-73
2022/11/16 01:21:26;;;;;;;5.10;2.10;;;10.30;99.90;;;9.61;100.00;96044.88;4977288;28;20050;-73
2022/11/16 01:23:55;;;;;;;4.13;2.53;;;10.30;99.90;;;9.54;100.00;96053.13;4965415;28;20039;-73
2022/11/16 01:26:23;;;;;;;4.93;2.78;;;10.30;99.90;;;9.57;100.00;96051.16;4961673;28;20138;-73
2022/11/16 01:28:51;;;;;;;4.68;2.30;;;10.40;99.90;;;9.59;100.00;96061.44;4963673;28;20055;-72
2022/11/16 01:31:18;;;;;;;4.97;2.60;;;10.40;99.90;;;9.56;100.00;96069.41;4960923;28;20055;-72
2022/11/16 01:33:45;;;;;;;3.25;1.70;;;10.40;99.90;;;9.60;100.00;96076.03;4957490;28;20536;-73
2022/11/16 01:36:13;;;;;;;2.90;1.63;;;10.40;99.90;;;9.65;100.00;96089.56;4961637;28;20134;-73
2022/11/16 01:38:45;;;;;;;3.47;1.50;;;10.50;99.90;;;9.68;100.00;96096.31;4943937;28;20055;-73
2022/11/16 01:41:16;;;;;;;1.92;1.15;;;10.50;99.90;;;9.74;100.00;96101.09;4963663;28;20086;-72
2022/11/16 01:44:13;;;;;;;2.78;1.80;;;10.50;99.90;;;9.71;100.00;96104.72;4962017;28;20064;-72
2022/11/16 01:46:41;;;;;;;5.15;1.90;;;10.50;99.90;;;9.73;100.00;96097.69;4964935;28;20749;-73
2022/11/16 01:49:13;;;;;;;3.90;1.50;;;10.50;99.90;;;9.71;100.00;96081.38;4963859;28;20043;-73
2022/11/16 01:51:46;;;;;;;1.55;1.02;;;10.50;99.90;;;9.76;100.00;96081.09;4979040;28;20493;-73
2022/11/16 01:54:14;;;;;;;2.10;1.08;;;10.40;99.90;;;9.74;100.00;96083.81;4962342;28;20047;-72
2022/11/16 01:56:44;;;;;;;2.13;0.98;;;10.40;99.90;;;9.75;100.00;96076.84;4965362;28;20366;-73
2022/11/16 01:59:12;;;;;;;2.03;1.10;;;10.40;99.90;;;9.73;100.00;96079.53;4962523;28;20054;-73
2022/11/16 02:01:39;;;;;;;1.88;1.02;;;10.40;99.90;;;9.74;100.00;96078.63;4965633;28;20057;-73
2022/11/16 02:04:10;;;;;;;1.95;1.25;;;10.40;99.90;;;9.69;100.00;96080.66;4960088;28;20054;-73
2022/11/16 02:07:15;;;;;;;2.38;1.33;;;10.30;99.90;;;9.69;100.00;96072.06;4967306;28;20051;-73
2022/11/16 02:10:34;;;;;;;3.00;1.40;;;10.30;99.90;;;9.67;100.00;96074.75;4976209;28;20654;-71
2022/11/16 02:13:21;;;;;;;2.75;1.48;;;10.30;99.90;;;9.67;100.00;96073.91;4962262;28;20051;-71
2022/11/16 02:16:26;;;;;;;3.70;1.92;;;10.30;99.90;;;9.69;100.00;96070.28;4979957;28;20050;-71
2022/11/16 02:19:40;;;;;;;4.93;1.85;;;10.30;99.90;;;9.67;100.00;96059.22;4976402;28;20469;-73
2022/11/16 02:22:24;;;;;;;3.80;2.15;;;10.30;99.90;;;9.67;100.00;96064.41;4963595;28;20059;-72
2022/11/16 02:25:32;;;;;;;4.47;2.72;;;10.30;99.90;;;9.67;100.00;96053.19;4962930;28;20606;-73
2022/11/16 02:28:25;;;;;;;4.00;1.98;;;10.30;99.90;;;9.69;100.00;96056.50;4979224;28;20046;-73
2022/11/16 02:30:55;;;;;;;3.33;2.07;;;10.40;99.90;;;9.74;100.00;96052.72;4964738;28;20051;-73
2022/11/16 02:33:29;;;;;;;5.28;2.28;;;10.40;99.90;;;9.74;100.00;96046.69;4961843;28;20485;-73
2022/11/16 02:36:01;;;;;;;4.53;2.72;;;10.30;99.90;;;9.70;100.00;96042.66;4980917;28;20066;-72
2022/11/16 02:38:34;;;;;;;4.47;2.70;;;10.30;99.90;;;9.68;100.00;96034.13;4975865;28;20078;-72
2022/11/16 02:41:15;;;;;;;4.03;2.53;;;10.30;99.90;;;9.63;100.00;96040.44;4964332;28;20054;-72
2022/11/16 02:43:46;;;;;;;3.30;2.60;;;10.30;99.90;;;9.64;100.00;96041.25;4964276;28;20058;-72
2022/11/16 02:46:26;;;;;;;5.63;3.05;;;10.30;99.90;;;9.64;100.00;96043.84;4982912;28;20075;-73
2022/11/16 02:48:57;;;;;;;4.70;2.42;;;10.30;99.90;;;9.67;100.00;96048.84;4982519;28;20050;-72
2022/11/16 02:51:27;;;;;;;5.07;2.70;;;10.30;99.90;;;9.69;100.00;96040.97;4977412;28;20051;-72
2022/11/16 02:54:11;;;;;;;4.07;2.30;;;10.30;99.90;;;9.69;100.00;96022.81;4966913;28;20051;-73
2022/11/16 02:57:11;;;;;;;4.22;2.35;;;10.30;99.90;;;9.60;100.00;96037.19;4964920;28;20149;-71
2022/11/16 02:59:49;;;;;;;9.73;2.28;;;10.30;99.90;;;9.64;100.00;96060.22;4982179;28;20051;-72
2022/11/16 03:02:38;;;;;;;4.82;2.13;;;10.30;99.90;;;9.55;100.00;96052.19;4981317;28;20057;-72
2022/11/16 03:05:38;;;;;;;3.03;1.80;;;10.20;99.90;;;9.60;100.00;96057.91;4964206;28;20706;-72
2022/11/16 03:08:24;;;;;;;3.97;2.00;;;10.20;99.90;;;9.47;100.00;96065.63;4961669;28;20068;-72
2022/11/16 03:13:46;;;;;;;2.55;1.23;;;10.20;99.90;;;9.43;100.00;96052.03;4962000;28;20442;-70
2022/11/16 03:16:37;;;;;;;2.28;1.13;;;10.20;99.90;;;9.51;100.00;96051.56;4966215;28;20058;-72
2022/11/16 03:19:14;;;;;;;3.58;1.25;;;10.10;99.90;;;9.45;100.00;96039.00;4945932;28;20095;-72
2022/11/16 03:21:51;;;;;;;1.88;1.10;;;10.10;99.90;;;9.46;100.00;96026.88;4964287;28;20047;-72
2022/11/16 03:24:19;;;;;;;2.17;1.20;;;10.10;99.90;;;9.46;100.00;96022.53;4961433;28;20047;-72
2022/11/16 03:27:15;;;;;;;2.80;1.10;;;10.10;99.90;;;9.38;100.00;96022.19;4977050;28;20457;-72
2022/11/16 03:30:28;;;;;;;2.53;0.93;;;10.10;99.90;;;9.34;100.00;96025.91;4963822;28;20054;-72
2022/11/16 03:33:15;;;;;;;4.85;0.90;;;10.00;99.90;;;9.32;100.00;96038.09;4970579;28;20047;-72
2022/11/16 03:36:22;;;;;;;5.65;1.02;;;10.00;99.90;;;9.27;100.00;96038.38;4978623;28;20054;-73
2022/11/16 03:38:51;;;;;;;2.80;0.90;;;10.00;99.90;;;9.22;100.00;96032.66;4978122;28;20757;-72
2022/11/16 03:41:21;;;;;;;2.95;1.30;;;10.00;99.90;;;9.20;100.00;96029.34;4961085;28;20039;-73
2022/11/16 03:43:49;;;;;;;1.88;1.10;;;10.00;99.90;;;9.25;100.00;96042.00;4964263;28;20057;-72
2022/11/16 03:46:16;;;;;;;1.55;0.70;;;10.00;99.90;;;9.08;100.00;96038.69;4965050;28;20054;-72
2022/11/16 03:48:43;;;;;;;1.25;0.50;;;9.90;99.90;;;9.27;100.00;96056.50;4964511;28;20049;-72
2022/11/16 03:51:11;;;;;;;1.70;0.60;;;9.90;99.90;;;9.11;100.00;96068.75;4975962;28;20055;-73
2022/11/16 03:53:38;;;;;;;3.13;0.55;;;9.80;99.90;;;9.14;100.00;96065.94;4978526;28;20051;-72
2022/11/16 03:56:05;;;;;;;3.50;0.70;;;9.80;99.90;;;9.06;100.00;96058.66;4962714;28;20057;-72
2022/11/16 03:58:32;;;;;;;1.25;0.68;;;9.70;99.90;;;9.06;100.00;96058.66;4961078;28;20420;-73
2022/11/16 04:01:02;;;;;;;1.75;0.80;;;9.70;99.90;;;9.03;100.00;96055.41;4975209;28;20113;-73
2022/11/16 04:03:29;;;;;;;3.08;1.00;;;9.70;99.90;;;9.04;100.00;96062.28;4965221;28;20050;-72
2022/11/16 04:26:12;;;;;;;0.98;0.55;;;9.60;99.90;;;9.05;100.00;96061.34;4969997;28;20059;-73
2022/11/16 04:28:40;;;;;;;1.58;0.60;;;9.70;99.90;;;9.07;100.00;96062.91;4965507;28;20046;-72
2022/11/16 04:39:23;;;;;;;1.85;1.00;;;9.70;99.90;;;9.11;100.00;96069.56;4965869;28;20058;-73
2022/11/16 04:47:21;;;;;;;2.40;1.00;;;9.80;99.90;;;9.14;100.00;96066.78;4966437;28;20409;-71
2022/11/16 04:49:48;;;;;;;3.83;1.52;;;9.80;99.90;;;9.19;100.00;96076.84;4966505;28;20055;-72
2022/11/16 04:52:14;;;;;;;4.15;1.20;;;9.80;99.90;;;9.18;100.00;96070.03;4962925;28;20043;-73
2022/11/16 04:54:41;;;;;;;3.75;1.40;;;9.80;99.90;;;9.20;100.00;96073.34;4965643;28;20444;-73
2022/11/16 04:57:08;;;;;;;2.05;1.05;;;9.80;99.90;;;9.16;100.00;96070.09;4965871;28;20508;-72
2022/11/16 04:59:35;;;;;;;3.70;1.20;;;9.80;99.90;;;9.16;100.00;96071.88;4978677;28;20769;-72
2022/11/16 05:02:08;;;;;;;3.85;1.17;;;9.80;99.90;;;9.20;100.00;96074.19;4964247;28;20074;-73
2022/11/16 05:04:40;;;;;;;7.13;1.55;;;9.80;99.90;;;9.26;100.00;96073.00;4966468;28;20428;-72
2022/11/16 05:07:10;;;;;;;4.90;1.83;;;9.80;99.90;;;9.21;100.00;96077.59;4978503;28;20062;-71
2022/11/16 05:09:41;;;;;;;3.67;1.40;;;9.80;99.90;;;9.19;100.00;96075.13;4963335;28;20257;-72
2022/11/16 05:12:10;;;;;;;5.13;1.48;;;9.90;99.90;;;9.27;100.00;96084.16;4964871;28;20481;-73
2022/11/16 05:14:37;;;;;;;4.03;1.40;;;9.90;99.90;;;9.23;100.00;96078.34;4965197;28;20059;-72
2022/11/16 05:17:04;;;;;;;4.38;1.58;;;9.90;99.90;;;9.23;100.00;96077.50;4964570;28;20465;-72
2022/11/16 05:22:17;;;;;;;3.13;1.48;;;9.90;99.90;;;9.26;100.00;96077.31;4966343;28;20068;-72
2022/11/16 05:24:44;;;;;;;4.78;1.60;;;9.90;99.90;;;9.25;100.00;96066.13;4963023;28;20054;-72
2022/11/16 05:27:14;;;;;;;5.15;1.73;;;9.90;99.90;;;9.23;100.00;96070.56;4966560;28;20047;-72
2022/11/16 05:29:42;;;;;;;4.18;1.80;;;9.90;99.90;;;9.24;100.00;96063.63;4967070;28;20108;-71
2022/11/16 05:32:11;;;;;;;7.10;2.10;;;9.90;99.90;;;9.23;100.00;96069.75;4965089;28;20059;-72
2022/11/16 05:34:39;;;;;;;4.78;1.85;;;9.90;99.90;;;9.20;100.00;96074.19;4981244;28;20142;-72
2022/11/16 05:37:06;;;;;;;4.97;1.77;;;10.00;99.90;;;9.20;100.00;96071.59;4964150;28;20103;-72
2022/11/16 05:39:33;;;;;;;6.63;2.28;;;10.00;99.90;;;9.26;100.00;96066.94;4965011;28;20043;-72
2022/11/16 05:42:00;;;;;;;5.47;1.92;;;10.00;99.90;;;9.25;100.00;96066.13;4977139;28;20405;-71
2022/11/16 05:44:27;;;;;;;8.15;2.40;;;9.90;99.90;;;9.20;100.00;96068.19;4964330;28;20047;-72
2022/11/16 05:46:55;;;;;;;6.25;1.60;;;9.90;99.90;;;9.26;100.00;96074.72;4963731;28;20073;-72
2022/11/16 05:49:22;;;;;;;5.53;1.80;;;9.90;99.90;;;9.25;100.00;96073.06;4965069;28;20047;-72
2022/11/16 05:51:49;;;;;;;6.93;2.10;;;10.00;99.90;;;9.29;100.00;96065.03;4965540;28;20142;-72
2022/11/16 05:54:24;;;;;;;5.28;1.60;;;10.00;99.90;;;9.26;100.00;96069.53;4965899;28;20054;-71
2022/11/16 05:56:52;;;;;;;3.97;1.70;;;9.90;99.90;;;9.22;100.00;96068.91;4964280;28;20137;-72
2022/11/16 05:59:21;;;;;;;5.22;2.20;;;9.90;99.90;;;9.28;100.00;96072.88;4964762;28;20054;-73
2022/11/16 06:01:49;;;;;;;6.47;1.88;;;9.90;99.90;;;9.17;100.00;96079.56;4961228;28;20081;-72
2022/11/16 06:04:16;;;;;;;6.82;2.20;;;9.90;99.90;;;9.20;100.00;96065.59;4978318;28;20131;-71
2022/11/16 06:06:50;;;;;;;8.73;1.80;;;9.90;99.90;;;9.24;100.00;96071.38;4962231;28;20078;-72
2022/11/16 06:09:17;;;;;;;10.98;2.25;;;9.80;99.90;;;9.18;100.00;96072.63;4963713;28;20058;-71
2022/11/16 06:11:44;;;;;;;4.43;2.38;;;9.80;99.90;;;9.19;100.00;96058.72;4965095;28;20145;-71
2022/11/16 06:14:11;;;;;;;5.55;2.08;;;9.80;99.90;;;9.04;100.00;96070.88;4964160;28;20073;-72
2022/11/16 06:16:38;;;;;;;10.00;2.15;;;9.80;99.90;;;9.02;100.00;96071.88;4962925;28;20050;-72
2022/11/16 06:19:05;;;;;;;6.30;1.42;;;9.70;99.90;;;9.07;100.00;96068.06;4964288;28;20050;-70
2022/11/16 06:21:32;;;;;;;14.43;2.25;;;9.70;99.90;;;8.99;100.00;96083.25;4963317;28;20560;-72
2022/11/16 06:24:00;;;;;;;8.13;1.58;;;9.60;99.90;;;8.91;100.00;96086.28;4962919;28;20047;-71
2022/11/16 06:26:27;;;;;;;11.15;2.10;;;9.50;99.90;;;8.86;100.00;96095.25;4964037;28;20047;-71
2022/11/16 06:28:54;;;;;;;7.50;1.85;;;9.60;99.90;;;8.84;100.00;96079.00;4963934;28;20057;-71
2022/11/16 06:31:21;;;;;;;8.52;1.55;;;9.40;99.90;;;8.81;100.00;96094.72;4965093;28;20484;-71
2022/11/16 06:33:48;;;;;;;7.40;1.80;;;9.40;99.90;;;8.71;100.00;96091.81;4962692;28;20454;-71
2022/11/16 06:36:15;;;;;;;3.90;1.45;;;9.30;99.90;;;8.79;100.00;96099.97;4964845;28;20588;-71
2022/11/16 06:38:42;;;;;;;7.53;1.67;;;9.30;99.90;;;8.72;100.00;96096.91;4963344;28;20058;-71
2022/11/16 06:41:09;;;;;;;10.25;1.90;;;9.30;99.90;;;8.65;100.00;96113.72;4963700;28;20143;-72
2022/11/16 06:43:35;;;;;;;8.50;1.60;;;9.30;99.90;;;8.63;100.00;96117.31;4964841;28;20050;-70
2022/11/16 06:46:02;;;;;;;12.70;2.30;;;9.30;99.90;;;8.50;100.00;96118.00;4964320;28;20050;-71
2022/11/16 06:48:30;;;;;;;9.40;1.83;;;9.30;99.90;;;8.49;100.00;96129.28;4963551;28;20045;-70
2022/11/16 06:50:57;;;;;;;8.73;2.20;;;9.20;99.90;;;8.48;100.00;96125.00;4964161;28;20070;-71
2022/11/16 06:53:24;;;;;;;11.35;2.40;;;9.20;99.90;;;8.42;100.00;96127.16;4961925;28;20051;-70
2022/11/16 06:56:04;;;;;;;11.00;2.08;;;9.20;99.90;;;8.41;100.00;96128.88;4962250;28;20579;-71
2022/11/16 06:58:32;;;;;;;6.40;1.70;;;9.20;99.90;;;8.38;100.00;96139.38;4965883;28;20413;-72
2022/11/16 07:01:07;;;;;;;9.10;1.90;;;9.20;99.90;;;8.42;100.00;96142.66;4966824;28;20055;-72
2022/11/16 07:03:34;;;;;;;10.40;1.60;;;9.20;99.90;;;8.53;100.00;96133.38;4963905;28;20515;-72
2022/11/16 07:06:12;;;;;;;9.93;1.67;;;9.10;99.90;;;8.43;100.00;96141.72;4962406;28;20046;-70
2022/11/16 07:08:39;;;;;;;7.10;1.30;;;9.10;99.90;;;8.41;100.00;96144.38;4980191;28;20145;-71
2022/11/16 07:11:09;;;;;;;9.95;1.77;;;9.20;99.90;;;8.41;100.00;96131.47;4966918;28;20445;-70
2022/11/16 07:13:37;;;;;;;10.90;1.60;;;9.10;99.90;;;8.41;100.00;96138.38;4965939;28;20061;-71
2022/11/16 07:16:07;;;;;;;6.47;1.83;;;9.10;99.90;;;8.38;100.00;96160.06;4964776;28;20534;-71
2022/11/16 07:18:36;;;;;;;10.75;1.15;;;9.20;99.90;;;8.34;100.00;96151.63;4964412;28;20062;-72
2022/11/16 07:21:14;;;;;;;8.32;1.80;;;9.10;99.90;;;8.34;100.00;96143.03;4968905;28;20138;-71
2022/11/16 07:23:41;;;;;;;12.07;1.58;;;9.10;99.90;;;8.30;100.00;96136.38;4965149;28;20047;-71
2022/11/16 07:26:09;;;;;;;10.98;2.75;;;9.00;99.90;;;8.30;100.00;96131.19;4963949;28;20057;-71
2022/11/16 07:28:36;;;;;;;12.15;1.92;;;9.00;99.90;;;8.30;100.00;96139.81;4966157;28;20062;-71
2022/11/16 07:31:11;;;;;;;9.15;1.23;;;8.90;99.90;;;8.17;100.00;96136.25;4965062;28;20062;-71
2022/11/16 07:33:38;;;;;;;7.78;1.60;;;8.90;99.90;;;8.23;100.00;96137.63;4963820;28;20047;-71
2022/11/16 07:36:10;;;;;;;7.97;1.40;;;8.90;99.90;;;8.23;100.00;96137.63;4964358;28;20424;-72
2022/11/16 07:38:38;;;;;;;13.17;2.17;;;8.80;99.90;;;8.17;100.00;96137.06;4980359;28;20051;-71
2022/11/16 07:41:16;;;;;;;9.02;1.85;;;8.80;99.90;;;8.23;100.00;96147.97;4965568;28;20153;-72
2022/11/16 07:43:46;;;;;;;11.93;1.63;;;8.80;99.90;;;8.12;100.00;96146.03;4966905;28;20051;-71
2022/11/16 07:46:22;;;;;;;14.27;1.80;;;8.80;99.90;;;8.12;100.00;96148.59;4961134;28;20129;-71
2022/11/16 07:49:17;;;;;;;16.95;1.90;;;8.80;99.90;;;8.07;100.00;96158.34;4965619;28;20678;-70
2022/11/16 07:51:45;;;;;;;13.38;1.55;;;8.80;99.90;;;8.10;100.00;96155.59;4967568;28;20077;-71
2022/11/16 07:54:13;;;;;;;7.63;1.50;;;8.80;99.90;;;8.14;100.00;96157.94;4977249;28;20068;-71
2022/11/16 07:56:41;;;;;;;9.80;1.60;;;8.80;99.90;;;8.10;100.00;96158.19;4967248;28;20054;-71
2022/11/16 07:59:08;;;;;;;9.02;1.40;;;8.90;99.90;;;8.18;100.00;96164.56;4964967;28;20054;-71
2022/11/16 08:01:35;;;;;;;7.70;1.75;;;8.90;99.90;;;8.26;100.00;96158.16;4964981;28;20091;-71
2022/11/16 08:04:02;;;;;;;17.88;1.70;;;8.90;99.90;;;8.24;100.00;96160.00;4966868;28;20138;-71
2022/11/16 08:06:30;;;;;;;8.60;1.50;;;8.90;99.90;;;8.22;100.00;96162.66;4964480;28;20162;-69
2022/11/16 08:08:58;;;;;;;9.95;1.60;;;8.90;99.90;;;8.19;100.00;96162.84;4974680;28;20062;-69
2022/11/16 08:11:25;;;;;;;9.43;1.33;;;8.90;99.90;;;8.17;100.00;96181.00;4978068;28;20046;-71
2022/11/16 08:13:52;;;;;;;5.45;0.90;;;9.00;99.90;;;8.34;100.00;96168.91;4965069;28;20061;-71
2022/11/16 08:16:21;;;;;;;9.38;1.70;;;9.00;99.90;;;8.57;100.00;96170.22;4962510;28;20053;-70
2022/11/16 08:18:48;;;;;;;9.75;1.33;;;9.20;99.90;;;8.59;100.00;96169.19;4965707;28;20057;-71
2022/11/16 08:21:18;;;;;;;12.15;1.90;;;9.30;99.90;;;8.64;100.00;96174.09;4966458;28;20050;-69
2022/11/16 08:23:45;;;;;;;13.18;1.80;;;9.50;99.90;;;8.73;100.00;96163.22;4965910;28;20480;-70
2022/11/16 08:26:18;;;;;;;17.38;1.63;;;9.60;99.90;;;8.68;100.00;96172.19;4965586;28;20043;-71
2022/11/16 08:28:47;;;;;;;9.55;1.50;;;9.60;99.90;;;8.73;100.00;96177.91;4964959;28;20215;-71
2022/11/16 08:31:17;;;;;;;11.90;1.58;;;9.60;99.90;;;8.66;100.00;96174.03;4963987;28;20066;-70
2022/11/16 08:33:44;;;;;;;9.90;2.00;;;9.50;99.90;;;8.55;100.00;96179.81;4963940;28;20527;-71
2022/11/16 08:36:16;;;;;;;6.90;1.17;;;9.40;99.90;;;8.52;100.00;96172.22;4965987;28;20061;-71
2022/11/16 08:38:48;;;;;;;12.00;1.60;;;9.40;99.90;;;8.56;100.00;96178.91;4965178;28;20126;-71
2022/11/16 08:41:16;;;;;;;7.57;1.53;;;9.40;99.90;;;8.58;100.00;96175.31;4965679;28;20046;-71
2022/11/16 08:43:45;;;;;;;10.10;2.17;;;9.40;99.90;;;8.62;100.00;96168.22;4966956;28;20055;-71
2022/11/16 08:46:13;;;;;;;12.68;1.83;;;9.40;99.90;;;8.64;100.00;96171.53;4964961;28;20142;-71
2022/11/16 08:48:40;;;;;;;7.75;1.27;;;9.40;99.90;;;8.72;100.00;96174.50;4976853;28;20051;-71
2022/11/16 08:51:10;;;;;;;9.65;1.80;;;9.50;99.90;;;8.84;100.00;96179.91;4966571;28;20058;-71
2022/11/16 08:53:48;;;;;;;10.18;1.80;;;9.60;99.90;;;8.88;100.00;96181.38;4965928;28;20055;-71
2022/11/16 08:56:17;;;;;;;11.55;1.60;;;9.60;99.90;;;8.92;100.00;96188.06;4965805;28;20129;-72
2022/11/16 08:58:47;;;;;;;12.35;2.30;;;9.70;99.90;;;9.03;100.00;96190.00;4966934;28;20124;-71
2022/11/16 09:01:22;;;;;;;10.85;2.55;;;9.80;99.90;;;8.87;100.00;96198.69;4966983;28;20131;-71
2022/11/16 09:03:51;;;;;;;17.05;3.30;;;9.90;99.90;;;8.84;100.00;96192.84;4964771;28;20046;-71
2022/11/16 09:06:20;;;;;;;8.05;2.45;;;9.90;99.90;;;9.07;100.00;96188.91;4964259;28;20568;-70
2022/11/16 09:08:47;;;;;;;11.52;2.22;;;9.90;99.90;;;9.04;100.00;96200.28;4966209;28;20082;-72
2022/11/16 09:11:19;;;;;;;8.32;2.10;;;9.90;99.90;;;8.92;100.00;96211.34;4964807;28;20055;-69
2022/11/16 09:13:49;;;;;;;17.77;3.55;;;9.90;99.90;;;8.94;100.00;96212.06;4977524;28;20062;-72
2022/11/16 09:16:19;;;;;;;11.25;2.72;;;10.00;99.90;;;9.12;100.00;96198.09;4967451;28;20049;-72
2022/11/16 09:18:49;;;;;;;12.45;2.38;;;10.20;99.90;;;9.34;100.00;96201.97;4964086;28;20073;-72
2022/11/16 09:21:24;;;;;;;11.43;2.58;;;10.30;99.90;;;9.16;100.00;96214.25;4966660;28;20066;-71
2022/11/16 09:23:53;;;;;;;10.63;2.40;;;10.30;99.90;;;9.14;100.00;96223.84;4977890;28;20138;-72
2022/11/16 09:26:23;;;;;;;7.20;2.03;;;10.40;99.90;;;9.29;100.00;96209.19;4963440;28;20476;-71
2022/11/16 09:28:56;;;;;;;9.25;1.92;;;10.40;99.90;;;9.27;100.00;96224.81;4966599;28;20047;-70
2022/11/16 09:31:28;;;;;;;12.85;2.20;;;10.40;99.90;;;9.46;100.00;96206.41;4981224;28;20050;-71
2022/11/16 09:33:57;;;;;;;7.25;1.50;;;10.50;99.90;;;9.37;100.00;96215.59;4963968;28;20509;-70
2022/11/16 09:36:28;;;;;;;16.80;3.85;;;10.50;99.90;;;9.39;100.00;96221.47;4963719;28;20039;-71
2022/11/16 09:38:56;;;;;;;9.20;1.48;;;10.70;99.90;;;9.59;100.00;96217.69;4975645;28;20150;-71
2022/11/16 09:41:46;;;;;;;11.05;1.80;;;10.80;99.90;;;9.54;100.00;96193.00;4964147;28;20621;-70
2022/11/16 09:44:34;;;;;;;10.25;1.85;;;10.90;99.90;;;9.62;100.00;96195.94;4962399;28;20164;-71
2022/11/16 09:47:01;;;;;;;6.80;1.42;;;10.70;99.90;;;9.38;100.00;96219.81;4964163;28;20062;-69
2022/11/16 09:49:34;;;;;;;11.50;1.95;;;10.60;99.90;;;9.45;100.00;96209.13;4962899;28;20069;-71
2022/11/16 09:52:07;;;;;;;9.77;1.08;;;10.60;99.90;;;9.52;100.00;96208.63;4965753;28;20070;-71
2022/11/16 09:54:39;;;;;;;9.55;1.58;;;10.60;99.90;;;9.58;100.00;96218.63;4978507;28;20050;-72
2022/11/16 09:57:10;;;;;;;9.20;1.67;;;10.60;99.90;;;9.48;100.00;96219.28;4976893;28;20046;-71
2022/11/16 09:59:53;;;;;;;13.18;1.58;;;10.70;99.90;;;9.67;100.00;96211.22;4976784;28;20246;-70
2022/11/16 10:02:24;;;;;;;13.32;1.80;;;10.60;99.90;;;9.54;100.00;96224.94;4975085;28;20046;-71
2022/11/16 10:05:10;;;;;;;10.85;1.40;;;10.60;99.90;;;9.55;100.00;96218.81;4960086;28;20058;-71
2022/11/16 10:07:47;;;;;;;10.25;1.83;;;10.80;99.90;;;9.59;100.00;96225.47;4963779;28;20042;-72
2022/11/16 10:10:29;;;;;;;7.65;1.35;;;10.90;99.90;;;9.59;100.00;96224.66;4945752;28;20061;-71
2022/11/16 10:13:30;;;;;;;8.95;1.35;;;11.00;99.90;;;9.92;100.00;96215.72;4971476;28;20047;-69
2022/11/16 10:16:12;;;;;;;12.65;1.50;;;11.20;99.90;;;10.10;100.00;96212.00;4959519;28;20552;-72
2022/11/16 10:19:11;;;;;;;10.80;1.50;;;11.40;99.90;;;10.27;100.00;96203.19;4961552;28;20055;-71
2022/11/16 10:22:07;;;;;;;8.75;1.25;;;11.40;99.90;;;10.25;100.00;96189.47;4960508;28;20050;-72
2022/11/16 10:24:59;;;;;;;9.93;1.20;;;11.30;99.90;;;10.06;100.00;96197.59;4960932;28;20154;-70
2022/11/16 10:28:03;;;;;;;10.32;2.05;;;11.20;99.90;;;10.14;100.00;96194.50;4976427;28;20098;-71
2022/11/16 10:30:39;;;;;;;9.50;1.60;;;11.20;99.90;;;9.93;100.00;96204.44;4959979;28;20046;-71
2022/11/16 10:33:11;;;;;;;12.20;1.58;;;;;;;9.97;100.00;96195.56;4958247;28;20695;-72
2022/11/16 10:35:53;;;;;;;14.13;1.50;;;11.10;99.90;;;9.94;100.00;96206.94;4960198;28;20043;-71
2022/11/16 10:38:26;;;;;;;9.48;1.33;;;11.10;99.90;;;10.11;100.00;96197.28;4976092;28;20433;-72
2022/11/16 10:41:19;;;;;;;10.23;1.40;;;11.20;99.90;;;10.20;100.00;96199.31;4961985;28;20046;-73
2022/11/16 10:43:47;;;;;;;10.43;1.80;;;11.10;99.90;;;10.13;100.00;96201.44;4959510;28;20047;-70
2022/11/16 10:46:23;;;;;;;9.55;1.35;;;11.10;99.90;;;10.19;100.00;96200.22;4962385;28;20046;-72
2022/11/16 10:49:14;;;;;;;7.22;1.33;;;11.30;99.90;;;10.30;100.00;96187.44;4976196;28;20051;-72
2022/11/16 10:51:42;;;;;;;9.32;1.40;;;11.20;99.90;;;10.09;100.00;96191.38;4965176;28;20059;-72
2022/11/16 10:54:13;;;;;;;7.82;1.70;;;11.20;99.90;;;10.05;100.00;96203.69;4959806;28;20409;-73
2022/11/16 10:56:47;;;;;;;8.43;1.83;;;11.10;99.90;;;10.13;100.00;96200.63;4972316;28;20085;-72
2022/11/16 10:59:18;;;;;;;8.50;1.38;;;11.20;99.90;;;10.19;100.00;96208.81;4977338;28;20047;-72
2022/11/16 11:01:56;;;;;;;11.75;1.38;;;11.30;99.90;;;10.32;100.00;96219.31;4960630;28;20058;-70
2022/11/16 11:04:28;;;;;;;8.68;1.27;;;11.40;99.90;;;10.30;100.00;96194.41;4960803;28;20065;-71
2022/11/16 11:07:20;;;;;;;6.60;1.20;;;11.50;99.90;;;10.30;100.00;96200.41;4968395;28;20054;-72
2022/11/16 11:09:54;;;;;;;8.90;1.55;;;11.50;99.90;;;10.10;100.00;96201.63;4962685;28;20678;-71
2022/11/16 11:12:39;;;;;;;8.50;1.10;;;11.60;99.90;;;10.16;100.00;96200.44;4963221;28;20057;-72
2022/11/16 11:15:25;;;;;;;4.47;1.00;;;11.70;99.90;;;10.14;100.00;96217.84;4962412;28;20138;-71
2022/11/16 11:18:30;;;;;;;7.75;1.10;;;;;;;10.12;100.00;96207.56;4979796;28;20074;-73
2022/11/16 11:21:05;;;;;;;9.40;1.70;;;;;;;10.43;100.00;96203.88;4976190;28;20501;-71
2022/11/16 11:23:46;;;;;;;16.73;4.80;;;;;;;10.92;100.00;96210.25;4962978;28;20047;-72
2022/11/16 11:26:34;;;;;;;10.43;1.52;;;;;;;10.93;100.00;96203.31;4980288;28;20073;-72
2022/11/16 11:29:08;;;;;;;7.15;1.08;;;;;;;10.41;100.00;96205.75;4978379;28;20137;-72
2022/11/16 11:31:42;;;;;;;11.07;2.03;;;12.20;99.90;;;10.62;100.00;96198.34;4961348;28;20051;-70